sensor_id;sensor_type;location;lat;lon;timestamp;temperature;humidity
6307;DHT22;3186;54.062;9.962;2023-01-04T00:01:12;5.90;99.90
6307;DHT22;3186;54.062;9.962;2023-01-04T00:03:38;5.90;99.90
6307;DHT22;3186;54.062;9.962;2023-01-04T00:06:05;5.80;99.90
6307;DHT22;3186;54.062;9.962;2023-01-04T00:08:32;5.90;99.90
6307;DHT22;3186;54.062;9.962;2023-01-04T00:11:03;5.90;99.90
6307;DHT22;3186;54.062;9.962;2023-01-04T00:13:29;5.90;99.90
6307;DHT22;3186;54.062;9.962;2023-01-04T00:15:56;5.90;99.90
6307;DHT22;3186;54.062;9.962;2023-01-04T00:18:22;5.90;99.90
6307;DHT22;3186;54.062;9.962;2023-01-04T00:20:47;6.00;99.90
6307;DHT22;3186;54.062;9.962;2023-01-04T00:23:13;6.00;99.90
6307;DHT22;3186;54.062;9.962;2023-01-04T00:25:40;6.00;99.90
6307;DHT22;3186;54.062;9.962;2023-01-04T00:28:06;6.10;99.90
6307;DHT22;3186;54.062;9.962;2023-01-04T00:30:31;6.10;99.90
6307;DHT22;3186;54.062;9.962;2023-01-04T00:32:58;6.10;99.90
6307;DHT22;3186;54.062;9.962;2023-01-04T00:35:24;6.10;99.90
6307;DHT22;3186;54.062;9.962;2023-01-04T00:37:51;6.10;99.90
6307;DHT22;3186;54.062;9.962;2023-01-04T00:40:17;6.10;99.90
6307;DHT22;3186;54.062;9.962;2023-01-04T00:42:43;6.10;99.90
6307;DHT22;3186;54.062;9.962;2023-01-04T00:45:09;6.10;99.90
6307;DHT22;3186;54.062;9.962;2023-01-04T00:47:34;6.20;99.90
6307;DHT22;3186;54.062;9.962;2023-01-04T00:50:00;6.20;99.90
6307;DHT22;3186;54.062;9.962;2023-01-04T00:52:26;6.20;99.90
6307;DHT22;3186;54.062;9.962;2023-01-04T00:54:52;6.20;99.90
6307;DHT22;3186;54.062;9.962;2023-01-04T00:57:18;6.20;99.90
6307;DHT22;3186;54.062;9.962;2023-01-04T00:59:44;6.20;99.90
6307;DHT22;3186;54.062;9.962;2023-01-04T01:02:09;6.20;99.90
6307;DHT22;3186;54.062;9.962;2023-01-04T01:04:35;6.30;99.90
6307;DHT22;3186;54.062;9.962;2023-01-04T01:07:01;6.20;99.90
6307;DHT22;3186;54.062;9.962;2023-01-04T01:09:27;6.30;99.90
6307;DHT22;3186;54.062;9.962;2023-01-04T01:11:53;6.30;99.90
6307;DHT22;3186;54.062;9.962;2023-01-04T01:14:21;6.30;99.90
6307;DHT22;3186;54.062;9.962;2023-01-04T01:16:47;6.30;99.90
6307;DHT22;3186;54.062;9.962;2023-01-04T01:19:13;6.40;99.90
6307;DHT22;3186;54.062;9.962;2023-01-04T01:21:39;6.40;99.90
6307;DHT22;3186;54.062;9.962;2023-01-04T01:24:06;6.40;99.90
6307;DHT22;3186;54.062;9.962;2023-01-04T01:26:32;6.40;99.90
6307;DHT22;3186;54.062;9.962;2023-01-04T01:28:58;6.40;99.90
6307;DHT22;3186;54.062;9.962;2023-01-04T01:31:26;6.40;99.90
6307;DHT22;3186;54.062;9.962;2023-01-04T01:33:55;6.50;99.90
6307;DHT22;3186;54.062;9.962;2023-01-04T01:36:22;6.50;99.90
6307;DHT22;3186;54.062;9.962;2023-01-04T01:38:48;6.40;99.90
6307;DHT22;3186;54.062;9.962;2023-01-04T01:41:27;6.50;99.90
6307;DHT22;3186;54.062;9.962;2023-01-04T01:43:54;6.50;99.90
6307;DHT22;3186;54.062;9.962;2023-01-04T01:49:34;6.50;99.90
6307;DHT22;3186;54.062;9.962;2023-01-04T01:52:05;6.50;99.90
6307;DHT22;3186;54.062;9.962;2023-01-04T01:54:38;6.50;99.90
6307;DHT22;3186;54.062;9.962;2023-01-04T01:57:08;6.50;99.90
6307;DHT22;3186;54.062;9.962;2023-01-04T01:59:37;6.50;99.90
6307;DHT22;3186;54.062;9.962;2023-01-04T02:02:05;6.50;99.90
6307;DHT22;3186;54.062;9.962;2023-01-04T02:04:31;6.60;99.90
6307;DHT22;3186;54.062;9.962;2023-01-04T02:06:58;6.60;99.90
6307;DHT22;3186;54.062;9.962;2023-01-04T02:09:25;6.60;99.90
6307;DHT22;3186;54.062;9.962;2023-01-04T02:11:51;6.60;99.90
6307;DHT22;3186;54.062;9.962;2023-01-04T02:14:17;6.60;99.90
6307;DHT22;3186;54.062;9.962;2023-01-04T02:17:06;6.60;99.90
6307;DHT22;3186;54.062;9.962;2023-01-04T02:23:12;6.70;99.90
6307;DHT22;3186;54.062;9.962;2023-01-04T02:37:17;6.70;99.90
6307;DHT22;3186;54.062;9.962;2023-01-04T02:40:15;6.70;99.90
6307;DHT22;3186;54.062;9.962;2023-01-04T02:45:50;6.70;99.90
6307;DHT22;3186;54.062;9.962;2023-01-04T02:48:17;6.70;99.90
6307;DHT22;3186;54.062;9.962;2023-01-04T02:51:01;6.80;99.90
6307;DHT22;3186;54.062;9.962;2023-01-04T02:53:35;6.80;99.90
6307;DHT22;3186;54.062;9.962;2023-01-04T03:10:06;6.90;99.90
6307;DHT22;3186;54.062;9.962;2023-01-04T03:12:40;6.80;99.90
6307;DHT22;3186;54.062;9.962;2023-01-04T03:15:16;6.80;99.90
6307;DHT22;3186;54.062;9.962;2023-01-04T03:17:49;6.90;99.90
6307;DHT22;3186;54.062;9.962;2023-01-04T03:20:20;6.80;99.90
6307;DHT22;3186;54.062;9.962;2023-01-04T03:23:02;6.80;99.90
6307;DHT22;3186;54.062;9.962;2023-01-04T03:25:52;6.70;99.90
6307;DHT22;3186;54.062;9.962;2023-01-04T03:28:38;6.70;99.90
6307;DHT22;3186;54.062;9.962;2023-01-04T03:31:29;6.80;99.90
6307;DHT22;3186;54.062;9.962;2023-01-04T03:34:15;6.80;99.90
6307;DHT22;3186;54.062;9.962;2023-01-04T03:42:56;6.70;99.90
6307;DHT22;3186;54.062;9.962;2023-01-04T03:45:51;6.70;99.90
6307;DHT22;3186;54.062;9.962;2023-01-04T03:48:53;6.70;99.90
6307;DHT22;3186;54.062;9.962;2023-01-04T03:51:25;6.60;99.90
6307;DHT22;3186;54.062;9.962;2023-01-04T03:54:13;6.70;99.90
6307;DHT22;3186;54.062;9.962;2023-01-04T03:56:43;6.70;99.90
6307;DHT22;3186;54.062;9.962;2023-01-04T03:59:11;6.70;99.90
6307;DHT22;3186;54.062;9.962;2023-01-04T04:01:37;6.70;99.90
6307;DHT22;3186;54.062;9.962;2023-01-04T04:04:04;6.70;99.90
6307;DHT22;3186;54.062;9.962;2023-01-04T04:06:48;6.60;99.90
6307;DHT22;3186;54.062;9.962;2023-01-04T04:09:32;6.70;99.90
6307;DHT22;3186;54.062;9.962;2023-01-04T04:11:58;6.70;99.90
6307;DHT22;3186;54.062;9.962;2023-01-04T04:14:24;6.70;99.90
6307;DHT22;3186;54.062;9.962;2023-01-04T04:16:50;6.70;99.90
6307;DHT22;3186;54.062;9.962;2023-01-04T04:19:16;6.70;99.90
6307;DHT22;3186;54.062;9.962;2023-01-04T04:21:41;6.70;99.90
6307;DHT22;3186;54.062;9.962;2023-01-04T04:24:15;6.60;99.90
6307;DHT22;3186;54.062;9.962;2023-01-04T04:26:41;6.70;99.90
6307;DHT22;3186;54.062;9.962;2023-01-04T04:29:06;6.70;99.90
6307;DHT22;3186;54.062;9.962;2023-01-04T04:31:32;6.70;99.90
6307;DHT22;3186;54.062;9.962;2023-01-04T04:33:58;6.60;99.90
6307;DHT22;3186;54.062;9.962;2023-01-04T04:36:24;6.60;99.90
6307;DHT22;3186;54.062;9.962;2023-01-04T04:38:50;6.60;99.90
6307;DHT22;3186;54.062;9.962;2023-01-04T04:41:15;6.70;99.90
6307;DHT22;3186;54.062;9.962;2023-01-04T04:44:00;6.60;99.90
6307;DHT22;3186;54.062;9.962;2023-01-04T04:46:25;6.60;99.90
6307;DHT22;3186;54.062;9.962;2023-01-04T04:48:51;6.60;99.90
6307;DHT22;3186;54.062;9.962;2023-01-04T04:51:17;6.60;99.90
6307;DHT22;3186;54.062;9.962;2023-01-04T04:53:43;6.60;99.90
6307;DHT22;3186;54.062;9.962;2023-01-04T04:56:09;6.60;99.90
6307;DHT22;3186;54.062;9.962;2023-01-04T04:58:35;6.60;99.90
6307;DHT22;3186;54.062;9.962;2023-01-04T05:01:01;6.60;99.90
6307;DHT22;3186;54.062;9.962;2023-01-04T05:03:27;6.60;99.90
6307;DHT22;3186;54.062;9.962;2023-01-04T05:05:52;6.60;99.90
6307;DHT22;3186;54.062;9.962;2023-01-04T05:08:18;6.60;99.90
6307;DHT22;3186;54.062;9.962;2023-01-04T05:10:44;6.60;99.90
6307;DHT22;3186;54.062;9.962;2023-01-04T05:13:11;6.60;99.90
6307;DHT22;3186;54.062;9.962;2023-01-04T05:15:42;6.60;99.90
6307;DHT22;3186;54.062;9.962;2023-01-04T05:18:09;6.60;99.90
6307;DHT22;3186;54.062;9.962;2023-01-04T05:20:36;6.70;99.90
6307;DHT22;3186;54.062;9.962;2023-01-04T05:23:02;6.70;99.90
6307;DHT22;3186;54.062;9.962;2023-01-04T05:25:28;6.70;99.90
6307;DHT22;3186;54.062;9.962;2023-01-04T05:27:54;6.70;99.90
6307;DHT22;3186;54.062;9.962;2023-01-04T05:30:20;6.70;99.90
6307;DHT22;3186;54.062;9.962;2023-01-04T05:33:05;6.70;99.90
6307;DHT22;3186;54.062;9.962;2023-01-04T05:35:31;6.70;99.90
6307;DHT22;3186;54.062;9.962;2023-01-04T05:37:57;6.60;99.90
6307;DHT22;3186;54.062;9.962;2023-01-04T05:40:23;6.70;99.90
6307;DHT22;3186;54.062;9.962;2023-01-04T05:42:49;6.70;99.90
6307;DHT22;3186;54.062;9.962;2023-01-04T05:45:16;6.70;99.90
6307;DHT22;3186;54.062;9.962;2023-01-04T05:47:42;6.70;99.90
6307;DHT22;3186;54.062;9.962;2023-01-04T05:50:08;6.70;99.90
6307;DHT22;3186;54.062;9.962;2023-01-04T05:52:35;6.80;99.90
6307;DHT22;3186;54.062;9.962;2023-01-04T05:55:01;6.70;99.90
6307;DHT22;3186;54.062;9.962;2023-01-04T05:57:27;6.70;99.90
6307;DHT22;3186;54.062;9.962;2023-01-04T05:59:53;6.80;99.90
6307;DHT22;3186;54.062;9.962;2023-01-04T06:02:24;6.80;99.90
6307;DHT22;3186;54.062;9.962;2023-01-04T06:04:50;6.80;99.90
6307;DHT22;3186;54.062;9.962;2023-01-04T06:07:17;6.90;99.90
6307;DHT22;3186;54.062;9.962;2023-01-04T06:09:43;6.90;99.90
6307;DHT22;3186;54.062;9.962;2023-01-04T06:12:09;6.90;99.90
6307;DHT22;3186;54.062;9.962;2023-01-04T06:14:35;6.90;99.90
6307;DHT22;3186;54.062;9.962;2023-01-04T06:17:01;6.90;99.90
6307;DHT22;3186;54.062;9.962;2023-01-04T06:19:27;6.80;99.90
6307;DHT22;3186;54.062;9.962;2023-01-04T06:21:53;6.90;99.90
6307;DHT22;3186;54.062;9.962;2023-01-04T06:24:19;7.00;99.90
6307;DHT22;3186;54.062;9.962;2023-01-04T06:26:45;7.00;99.90
6307;DHT22;3186;54.062;9.962;2023-01-04T06:29:11;6.90;99.90
6307;DHT22;3186;54.062;9.962;2023-01-04T06:31:36;6.90;99.90
6307;DHT22;3186;54.062;9.962;2023-01-04T06:34:02;7.00;99.90
6307;DHT22;3186;54.062;9.962;2023-01-04T06:36:28;7.00;99.90
6307;DHT22;3186;54.062;9.962;2023-01-04T06:38:57;7.10;99.90
6307;DHT22;3186;54.062;9.962;2023-01-04T06:41:22;7.00;99.90
6307;DHT22;3186;54.062;9.962;2023-01-04T06:43:48;7.00;99.90
6307;DHT22;3186;54.062;9.962;2023-01-04T06:46:15;7.20;99.90
6307;DHT22;3186;54.062;9.962;2023-01-04T06:48:41;7.20;99.90
6307;DHT22;3186;54.062;9.962;2023-01-04T06:51:07;7.10;99.90
6307;DHT22;3186;54.062;9.962;2023-01-04T06:53:32;7.20;99.90
6307;DHT22;3186;54.062;9.962;2023-01-04T06:55:58;7.10;99.90
6307;DHT22;3186;54.062;9.962;2023-01-04T06:58:24;7.20;99.90
6307;DHT22;3186;54.062;9.962;2023-01-04T07:00:51;7.20;99.90
6307;DHT22;3186;54.062;9.962;2023-01-04T07:03:17;7.20;99.90
6307;DHT22;3186;54.062;9.962;2023-01-04T07:05:43;7.30;99.90
6307;DHT22;3186;54.062;9.962;2023-01-04T07:08:11;7.30;99.90
6307;DHT22;3186;54.062;9.962;2023-01-04T07:10:38;7.30;99.90
6307;DHT22;3186;54.062;9.962;2023-01-04T07:13:05;7.40;99.90
6307;DHT22;3186;54.062;9.962;2023-01-04T07:15:31;7.40;99.90
6307;DHT22;3186;54.062;9.962;2023-01-04T07:17:57;7.30;99.90
6307;DHT22;3186;54.062;9.962;2023-01-04T07:20:23;7.30;99.90
6307;DHT22;3186;54.062;9.962;2023-01-04T07:22:49;7.40;99.90
6307;DHT22;3186;54.062;9.962;2023-01-04T07:25:15;7.50;99.90
6307;DHT22;3186;54.062;9.962;2023-01-04T07:27:41;7.40;99.90
6307;DHT22;3186;54.062;9.962;2023-01-04T07:30:07;7.50;99.90
6307;DHT22;3186;54.062;9.962;2023-01-04T07:32:33;7.60;99.90
6307;DHT22;3186;54.062;9.962;2023-01-04T07:34:59;7.50;99.90
6307;DHT22;3186;54.062;9.962;2023-01-04T07:37:24;7.60;99.90
6307;DHT22;3186;54.062;9.962;2023-01-04T07:39:50;7.60;99.90
6307;DHT22;3186;54.062;9.962;2023-01-04T07:42:16;7.60;99.90
6307;DHT22;3186;54.062;9.962;2023-01-04T07:44:43;7.60;99.90
6307;DHT22;3186;54.062;9.962;2023-01-04T07:47:09;7.70;99.90
6307;DHT22;3186;54.062;9.962;2023-01-04T07:49:35;7.70;99.90
6307;DHT22;3186;54.062;9.962;2023-01-04T07:52:01;7.70;99.90
6307;DHT22;3186;54.062;9.962;2023-01-04T07:54:27;7.60;99.90
6307;DHT22;3186;54.062;9.962;2023-01-04T07:56:53;7.70;99.90
6307;DHT22;3186;54.062;9.962;2023-01-04T07:59:19;7.80;99.90
6307;DHT22;3186;54.062;9.962;2023-01-04T08:01:46;7.70;99.90
6307;DHT22;3186;54.062;9.962;2023-01-04T08:04:13;7.90;99.90
6307;DHT22;3186;54.062;9.962;2023-01-04T08:06:41;7.90;99.90
6307;DHT22;3186;54.062;9.962;2023-01-04T08:09:09;7.90;99.90
6307;DHT22;3186;54.062;9.962;2023-01-04T08:11:35;8.00;99.90
6307;DHT22;3186;54.062;9.962;2023-01-04T08:14:01;7.90;99.90
6307;DHT22;3186;54.062;9.962;2023-01-04T08:16:29;8.00;99.90
6307;DHT22;3186;54.062;9.962;2023-01-04T08:18:58;7.90;99.90
6307;DHT22;3186;54.062;9.962;2023-01-04T08:21:25;8.00;99.90
6307;DHT22;3186;54.062;9.962;2023-01-04T08:23:52;8.10;99.90
6307;DHT22;3186;54.062;9.962;2023-01-04T08:26:18;8.10;99.90
6307;DHT22;3186;54.062;9.962;2023-01-04T08:28:47;8.10;99.90
6307;DHT22;3186;54.062;9.962;2023-01-04T08:31:19;8.00;99.90
6307;DHT22;3186;54.062;9.962;2023-01-04T08:33:46;8.20;99.90
6307;DHT22;3186;54.062;9.962;2023-01-04T08:36:19;8.30;99.90
6307;DHT22;3186;54.062;9.962;2023-01-04T08:38:47;8.40;99.90
6307;DHT22;3186;54.062;9.962;2023-01-04T08:41:14;8.30;99.90
6307;DHT22;3186;54.062;9.962;2023-01-04T08:43:40;8.20;99.90
6307;DHT22;3186;54.062;9.962;2023-01-04T08:46:06;8.30;99.90
6307;DHT22;3186;54.062;9.962;2023-01-04T08:48:33;8.30;99.90
6307;DHT22;3186;54.062;9.962;2023-01-04T08:51:09;8.50;99.90
6307;DHT22;3186;54.062;9.962;2023-01-04T08:53:35;8.20;99.90
6307;DHT22;3186;54.062;9.962;2023-01-04T08:56:01;8.50;99.90
6307;DHT22;3186;54.062;9.962;2023-01-04T08:58:29;8.50;99.90
6307;DHT22;3186;54.062;9.962;2023-01-04T09:01:02;8.50;99.90
6307;DHT22;3186;54.062;9.962;2023-01-04T09:03:29;8.60;99.90
6307;DHT22;3186;54.062;9.962;2023-01-04T09:06:09;8.40;99.90
6307;DHT22;3186;54.062;9.962;2023-01-04T09:08:36;8.60;99.90
6307;DHT22;3186;54.062;9.962;2023-01-04T09:11:16;8.70;99.90
6307;DHT22;3186;54.062;9.962;2023-01-04T09:13:44;8.80;99.90
6307;DHT22;3186;54.062;9.962;2023-01-04T09:16:12;8.70;99.90
6307;DHT22;3186;54.062;9.962;2023-01-04T09:18:41;8.60;99.90
6307;DHT22;3186;54.062;9.962;2023-01-04T09:21:10;8.70;99.90
6307;DHT22;3186;54.062;9.962;2023-01-04T09:23:37;8.90;99.90
6307;DHT22;3186;54.062;9.962;2023-01-04T09:26:07;9.00;99.90
6307;DHT22;3186;54.062;9.962;2023-01-04T09:28:34;8.80;99.90
6307;DHT22;3186;54.062;9.962;2023-01-04T09:31:07;8.90;99.90
6307;DHT22;3186;54.062;9.962;2023-01-04T09:33:34;8.90;99.90
6307;DHT22;3186;54.062;9.962;2023-01-04T09:36:04;9.20;99.90
6307;DHT22;3186;54.062;9.962;2023-01-04T09:38:31;9.10;99.90
6307;DHT22;3186;54.062;9.962;2023-01-04T09:43:53;9.10;99.90
6307;DHT22;3186;54.062;9.962;2023-01-04T09:52:06;9.40;99.90
6307;DHT22;3186;54.062;9.962;2023-01-04T09:57:16;9.40;99.90
6307;DHT22;3186;54.062;9.962;2023-01-04T09:59:45;9.50;99.90
6307;DHT22;3186;54.062;9.962;2023-01-04T10:02:18;9.30;99.90
6307;DHT22;3186;54.062;9.962;2023-01-04T10:04:50;9.20;99.90
6307;DHT22;3186;54.062;9.962;2023-01-04T10:07:25;9.20;99.90
6307;DHT22;3186;54.062;9.962;2023-01-04T10:09:52;9.50;99.90
6307;DHT22;3186;54.062;9.962;2023-01-04T10:15:21;9.30;99.90
6307;DHT22;3186;54.062;9.962;2023-01-04T10:20:43;9.60;99.90
6307;DHT22;3186;54.062;9.962;2023-01-04T10:26:12;9.50;99.90
6307;DHT22;3186;54.062;9.962;2023-01-04T10:31:44;9.60;99.90
6307;DHT22;3186;54.062;9.962;2023-01-04T10:34:24;9.80;99.90
6307;DHT22;3186;54.062;9.962;2023-01-04T10:36:55;9.80;99.90
6307;DHT22;3186;54.062;9.962;2023-01-04T10:39:26;9.80;99.90
6307;DHT22;3186;54.062;9.962;2023-01-04T10:42:43;9.90;99.90
6307;DHT22;3186;54.062;9.962;2023-01-04T10:45:21;10.00;99.90
6307;DHT22;3186;54.062;9.962;2023-01-04T10:48:11;9.80;99.90
6307;DHT22;3186;54.062;9.962;2023-01-04T10:50:55;9.80;99.90
6307;DHT22;3186;54.062;9.962;2023-01-04T10:53:32;9.90;99.90
6307;DHT22;3186;54.062;9.962;2023-01-04T10:56:04;9.80;99.90
6307;DHT22;3186;54.062;9.962;2023-01-04T11:01:18;9.80;99.90
6307;DHT22;3186;54.062;9.962;2023-01-04T11:04:13;9.90;99.90
6307;DHT22;3186;54.062;9.962;2023-01-04T11:07:22;9.90;99.90
6307;DHT22;3186;54.062;9.962;2023-01-04T11:12:40;9.90;99.90
6307;DHT22;3186;54.062;9.962;2023-01-04T11:15:07;9.90;99.90
6307;DHT22;3186;54.062;9.962;2023-01-04T11:17:34;10.00;99.90
6307;DHT22;3186;54.062;9.962;2023-01-04T11:20:00;10.10;99.90
6307;DHT22;3186;54.062;9.962;2023-01-04T11:22:41;10.10;99.90
6307;DHT22;3186;54.062;9.962;2023-01-04T11:25:12;10.10;99.90
6307;DHT22;3186;54.062;9.962;2023-01-04T11:28:02;10.00;99.90
6307;DHT22;3186;54.062;9.962;2023-01-04T11:30:53;10.20;99.90
6307;DHT22;3186;54.062;9.962;2023-01-04T11:33:21;10.20;99.90
6307;DHT22;3186;54.062;9.962;2023-01-04T11:35:53;10.30;99.90
6307;DHT22;3186;54.062;9.962;2023-01-04T11:38:23;10.30;99.90
6307;DHT22;3186;54.062;9.962;2023-01-04T11:41:06;10.40;99.90
6307;DHT22;3186;54.062;9.962;2023-01-04T11:43:35;10.40;99.90
6307;DHT22;3186;54.062;9.962;2023-01-04T11:46:06;10.30;99.90
6307;DHT22;3186;54.062;9.962;2023-01-04T11:48:35;10.40;99.90
6307;DHT22;3186;54.062;9.962;2023-01-04T11:51:03;10.40;99.90
6307;DHT22;3186;54.062;9.962;2023-01-04T11:53:34;10.40;99.90
6307;DHT22;3186;54.062;9.962;2023-01-04T11:56:17;10.30;99.90
6307;DHT22;3186;54.062;9.962;2023-01-04T12:01:47;10.50;99.90
6307;DHT22;3186;54.062;9.962;2023-01-04T12:04:19;10.50;99.90
6307;DHT22;3186;54.062;9.962;2023-01-04T12:09:21;10.40;99.90
6307;DHT22;3186;54.062;9.962;2023-01-04T12:11:52;10.60;99.90
6307;DHT22;3186;54.062;9.962;2023-01-04T12:19:40;10.60;99.90
6307;DHT22;3186;54.062;9.962;2023-01-04T12:24:52;10.60;99.90
6307;DHT22;3186;54.062;9.962;2023-01-04T12:27:19;10.50;99.90
6307;DHT22;3186;54.062;9.962;2023-01-04T12:30:02;10.60;99.90
6307;DHT22;3186;54.062;9.962;2023-01-04T12:34:54;10.60;99.90
6307;DHT22;3186;54.062;9.962;2023-01-04T12:45:42;10.70;99.90
6307;DHT22;3186;54.062;9.962;2023-01-04T12:48:32;10.70;99.90
6307;DHT22;3186;54.062;9.962;2023-01-04T12:51:24;10.70;99.90
6307;DHT22;3186;54.062;9.962;2023-01-04T12:56:20;10.80;99.90
6307;DHT22;3186;54.062;9.962;2023-01-04T12:59:09;10.80;99.90
6307;DHT22;3186;54.062;9.962;2023-01-04T13:01:36;10.80;99.90
6307;DHT22;3186;54.062;9.962;2023-01-04T13:04:36;10.80;99.90
6307;DHT22;3186;54.062;9.962;2023-01-04T13:07:18;10.90;99.90
6307;DHT22;3186;54.062;9.962;2023-01-04T13:15:59;11.00;99.90
6307;DHT22;3186;54.062;9.962;2023-01-04T13:18:49;11.00;99.90
6307;DHT22;3186;54.062;9.962;2023-01-04T13:24:17;11.00;99.90
6307;DHT22;3186;54.062;9.962;2023-01-04T13:26:44;10.90;99.90
6307;DHT22;3186;54.062;9.962;2023-01-04T13:29:30;11.10;99.90
6307;DHT22;3186;54.062;9.962;2023-01-04T13:31:58;11.10;99.90
6307;DHT22;3186;54.062;9.962;2023-01-04T13:34:40;11.00;99.90
6307;DHT22;3186;54.062;9.962;2023-01-04T13:39:51;11.10;99.90
6307;DHT22;3186;54.062;9.962;2023-01-04T13:42:33;11.10;99.90
6307;DHT22;3186;54.062;9.962;2023-01-04T13:47:36;11.10;99.90
6307;DHT22;3186;54.062;9.962;2023-01-04T13:50:03;11.00;99.90
6307;DHT22;3186;54.062;9.962;2023-01-04T13:52:29;11.10;99.90
6307;DHT22;3186;54.062;9.962;2023-01-04T13:55:19;11.10;99.90
6307;DHT22;3186;54.062;9.962;2023-01-04T13:58:01;11.10;99.90
6307;DHT22;3186;54.062;9.962;2023-01-04T14:05:52;11.10;99.90
6307;DHT22;3186;54.062;9.962;2023-01-04T14:08:30;11.00;99.90
6307;DHT22;3186;54.062;9.962;2023-01-04T14:10:57;11.20;99.90
6307;DHT22;3186;54.062;9.962;2023-01-04T14:13:23;11.10;99.90
6307;DHT22;3186;54.062;9.962;2023-01-04T14:16:04;11.10;99.90
6307;DHT22;3186;54.062;9.962;2023-01-04T14:18:30;11.20;99.90
6307;DHT22;3186;54.062;9.962;2023-01-04T14:20:57;11.10;99.90
6307;DHT22;3186;54.062;9.962;2023-01-04T14:23:33;11.10;99.90
6307;DHT22;3186;54.062;9.962;2023-01-04T14:26:00;11.10;99.90
6307;DHT22;3186;54.062;9.962;2023-01-04T14:28:30;11.10;99.90
6307;DHT22;3186;54.062;9.962;2023-01-04T14:46:31;11.10;99.90
6307;DHT22;3186;54.062;9.962;2023-01-04T14:48:57;11.10;99.90
6307;DHT22;3186;54.062;9.962;2023-01-04T14:51:30;11.00;99.90
6307;DHT22;3186;54.062;9.962;2023-01-04T14:53:57;11.10;99.90
6307;DHT22;3186;54.062;9.962;2023-01-04T14:56:22;11.00;99.90
6307;DHT22;3186;54.062;9.962;2023-01-04T14:58:48;11.00;99.90
6307;DHT22;3186;54.062;9.962;2023-01-04T15:01:14;11.00;99.90
6307;DHT22;3186;54.062;9.962;2023-01-04T15:03:40;11.00;99.90
6307;DHT22;3186;54.062;9.962;2023-01-04T15:06:06;11.00;99.90
6307;DHT22;3186;54.062;9.962;2023-01-04T15:08:32;11.00;99.90
6307;DHT22;3186;54.062;9.962;2023-01-04T15:10:58;11.00;99.90
6307;DHT22;3186;54.062;9.962;2023-01-04T15:13:23;10.90;99.90
6307;DHT22;3186;54.062;9.962;2023-01-04T15:15:49;10.80;99.90
6307;DHT22;3186;54.062;9.962;2023-01-04T15:18:16;10.70;99.90
6307;DHT22;3186;54.062;9.962;2023-01-04T15:20:42;10.70;99.90
6307;DHT22;3186;54.062;9.962;2023-01-04T15:23:08;10.70;99.90
6307;DHT22;3186;54.062;9.962;2023-01-04T15:25:37;10.70;99.90
6307;DHT22;3186;54.062;9.962;2023-01-04T15:28:03;10.70;99.90
6307;DHT22;3186;54.062;9.962;2023-01-04T15:30:29;10.70;99.90
6307;DHT22;3186;54.062;9.962;2023-01-04T15:32:55;10.70;99.90
6307;DHT22;3186;54.062;9.962;2023-01-04T15:35:21;10.70;99.90
6307;DHT22;3186;54.062;9.962;2023-01-04T15:37:47;10.70;99.90
6307;DHT22;3186;54.062;9.962;2023-01-04T15:40:14;10.70;99.90
6307;DHT22;3186;54.062;9.962;2023-01-04T15:42:41;10.70;99.90
6307;DHT22;3186;54.062;9.962;2023-01-04T15:45:38;10.70;99.90
6307;DHT22;3186;54.062;9.962;2023-01-04T15:48:06;10.70;99.90
6307;DHT22;3186;54.062;9.962;2023-01-04T15:50:34;10.80;99.90
6307;DHT22;3186;54.062;9.962;2023-01-04T15:53:00;10.70;99.90
6307;DHT22;3186;54.062;9.962;2023-01-04T15:55:29;10.70;99.90
6307;DHT22;3186;54.062;9.962;2023-01-04T15:57:55;10.70;99.90
6307;DHT22;3186;54.062;9.962;2023-01-04T16:00:21;10.70;99.90
6307;DHT22;3186;54.062;9.962;2023-01-04T16:02:47;10.70;99.90
6307;DHT22;3186;54.062;9.962;2023-01-04T16:05:13;10.60;99.90
6307;DHT22;3186;54.062;9.962;2023-01-04T16:07:41;10.60;99.90
6307;DHT22;3186;54.062;9.962;2023-01-04T16:10:07;10.60;99.90
6307;DHT22;3186;54.062;9.962;2023-01-04T16:12:33;10.50;99.90
6307;DHT22;3186;54.062;9.962;2023-01-04T16:15:16;10.50;99.90
6307;DHT22;3186;54.062;9.962;2023-01-04T16:17:44;10.60;99.90
6307;DHT22;3186;54.062;9.962;2023-01-04T16:20:12;10.50;99.90
6307;DHT22;3186;54.062;9.962;2023-01-04T16:22:38;10.50;99.90
6307;DHT22;3186;54.062;9.962;2023-01-04T16:25:05;10.40;99.90
6307;DHT22;3186;54.062;9.962;2023-01-04T16:27:32;10.50;99.90
6307;DHT22;3186;54.062;9.962;2023-01-04T16:29:59;10.50;99.90
6307;DHT22;3186;54.062;9.962;2023-01-04T16:32:26;10.50;99.90
6307;DHT22;3186;54.062;9.962;2023-01-04T16:34:51;10.40;99.90
6307;DHT22;3186;54.062;9.962;2023-01-04T16:37:18;10.40;99.90
6307;DHT22;3186;54.062;9.962;2023-01-04T16:39:47;10.50;99.90
6307;DHT22;3186;54.062;9.962;2023-01-04T16:42:13;10.40;99.90
6307;DHT22;3186;54.062;9.962;2023-01-04T16:44:39;10.40;99.90
6307;DHT22;3186;54.062;9.962;2023-01-04T16:47:06;10.50;99.90
6307;DHT22;3186;54.062;9.962;2023-01-04T16:49:32;10.50;99.90
6307;DHT22;3186;54.062;9.962;2023-01-04T16:51:58;10.50;99.90
6307;DHT22;3186;54.062;9.962;2023-01-04T16:54:23;10.50;99.90
6307;DHT22;3186;54.062;9.962;2023-01-04T16:56:49;10.50;99.90
6307;DHT22;3186;54.062;9.962;2023-01-04T16:59:17;10.50;99.90
6307;DHT22;3186;54.062;9.962;2023-01-04T17:01:44;10.50;99.90
6307;DHT22;3186;54.062;9.962;2023-01-04T17:04:12;10.50;99.90
6307;DHT22;3186;54.062;9.962;2023-01-04T17:06:40;10.50;99.90
6307;DHT22;3186;54.062;9.962;2023-01-04T17:09:11;10.40;99.90
6307;DHT22;3186;54.062;9.962;2023-01-04T17:11:38;10.40;99.90
6307;DHT22;3186;54.062;9.962;2023-01-04T17:14:05;10.40;99.90
6307;DHT22;3186;54.062;9.962;2023-01-04T17:16:31;10.50;99.90
6307;DHT22;3186;54.062;9.962;2023-01-04T17:18:57;10.50;99.90
6307;DHT22;3186;54.062;9.962;2023-01-04T17:21:25;10.50;99.90
6307;DHT22;3186;54.062;9.962;2023-01-04T17:23:53;10.50;99.90
6307;DHT22;3186;54.062;9.962;2023-01-04T17:26:21;10.50;99.90
6307;DHT22;3186;54.062;9.962;2023-01-04T17:28:48;10.50;99.90
6307;DHT22;3186;54.062;9.962;2023-01-04T17:31:16;10.50;99.90
6307;DHT22;3186;54.062;9.962;2023-01-04T17:33:43;10.50;99.90
6307;DHT22;3186;54.062;9.962;2023-01-04T17:36:11;10.50;99.90
6307;DHT22;3186;54.062;9.962;2023-01-04T17:38:37;10.40;99.90
6307;DHT22;3186;54.062;9.962;2023-01-04T17:41:15;10.50;99.90
6307;DHT22;3186;54.062;9.962;2023-01-04T17:43:42;10.50;99.90
6307;DHT22;3186;54.062;9.962;2023-01-04T17:46:11;10.40;99.90
6307;DHT22;3186;54.062;9.962;2023-01-04T17:48:37;10.40;99.90
6307;DHT22;3186;54.062;9.962;2023-01-04T17:51:17;10.30;99.90
6307;DHT22;3186;54.062;9.962;2023-01-04T17:53:45;10.30;99.90
6307;DHT22;3186;54.062;9.962;2023-01-04T17:56:16;10.30;99.90
6307;DHT22;3186;54.062;9.962;2023-01-04T17:58:43;10.30;99.90
6307;DHT22;3186;54.062;9.962;2023-01-04T18:01:11;10.30;99.90
6307;DHT22;3186;54.062;9.962;2023-01-04T18:03:43;10.30;99.90
6307;DHT22;3186;54.062;9.962;2023-01-04T18:06:11;10.30;99.90
6307;DHT22;3186;54.062;9.962;2023-01-04T18:08:37;10.30;99.90
6307;DHT22;3186;54.062;9.962;2023-01-04T18:11:04;10.30;99.90
6307;DHT22;3186;54.062;9.962;2023-01-04T18:13:32;10.30;99.90
6307;DHT22;3186;54.062;9.962;2023-01-04T18:16:03;10.30;99.90
6307;DHT22;3186;54.062;9.962;2023-01-04T18:18:30;10.30;99.90
6307;DHT22;3186;54.062;9.962;2023-01-04T18:20:56;10.30;99.90
6307;DHT22;3186;54.062;9.962;2023-01-04T18:23:21;10.30;99.90
6307;DHT22;3186;54.062;9.962;2023-01-04T18:25:51;10.30;99.90
6307;DHT22;3186;54.062;9.962;2023-01-04T18:28:16;10.30;99.90
6307;DHT22;3186;54.062;9.962;2023-01-04T18:30:42;10.30;99.90
6307;DHT22;3186;54.062;9.962;2023-01-04T18:33:08;10.30;99.90
6307;DHT22;3186;54.062;9.962;2023-01-04T18:35:34;10.30;99.90
6307;DHT22;3186;54.062;9.962;2023-01-04T18:38:00;10.20;99.90
6307;DHT22;3186;54.062;9.962;2023-01-04T18:40:26;10.20;99.90